North Tonawanda, NY (14120)

2:01 AM EST on February 09, 2016 (GMT -0500)
ridgeview estates | | Change Station
CLOSE
Current Station
Personal Weather Station
Location: North Tonawanda, NY
Elevation: 581 ft
Nearby Weather Stations

Elev 581 ft 43.08 °N, 78.80 °W | Updated 11 seconds ago

Snow
Snow
33.4 °F
Feels Like 33 °F
N
0.0
Wind Variable Wind from East
Gusts 0.0 mph

Today
High -- | Low -- °F
--% Chance of Precip.
Yesterday
High -- | Low -- °F
Precip. -- in
Pressure 29.55 in
Visibility 2.0 miles
Clouds Mostly Cloudy 500 ft
Overcast 1700 ft
Windchill 33 °F
Dew Point 30 °F
Humidity 87%
Rainfall 0.00 in
Snow Depth Not available.
7:21 AM 5:37 PM
New Moon, 1% visible
METAR KIAG 090653Z AUTO 13005KT 2SM -SN BR BKN005 OVC017 01/M01 A2951 RMK AO2 SNB03 CIG 003V009 SLP004 P0001 T00111006
Pressure 29.55 in
Visibility 2.0 miles
Clouds Mostly Cloudy 500 ft
Overcast 1700 ft
Windchill 33 °F
Dew Point 30 °F
Humidity 87%
Rainfall 0.00 in
Snow Depth Not available.
7:21 AM 5:37 PM
New Moon, 1% visible
METAR KIAG 090653Z AUTO 13005KT 2SM -SN BR BKN005 OVC017 01/M01 A2951 RMK AO2 SNB03 CIG 003V009 SLP004 P0001 T00111006

10-Day Weather Forecast

Almanac

Astronomy

Feb. 09, 2016 Rise Set
Actual Time
Civil Twilight
Nautical Twilight
Astronomical Twilight
Moon
Length of Visible Light
Length of Day
Tomorrow will be .
, % of the Moon is Illuminated

Today's Extremes

State Highs State Lows

Community

WunderPhotos

Upload Photos

1,891,571 photos uploaded!

WunderBlog® & News

Nearby

Air Quality

  Air Quality AQ Index Pollutant
Not available.

Snow Depth

Station Depth Elevation

Earthquake Activity

City Distance Mag. Time & Date
Minimum magnitude displayed is 2.5.

Coastal Water Temperatures

Place Temperature

Stations

Nearby Weather Stations

Station Location Temp. Windchill Dew Point Humidity Wind Precip. Elev Updated Type
                   

Watches & Warnings

There are currently no watches in effect.